sensor_id;sensor_type;location;lat;lon;timestamp;P1;durP1;ratioP1;P2;durP2;ratioP2
3050;SDS011;1535;51.098;6.414;2022-09-19T00:01:47;12.63;;;9.30;;
3050;SDS011;1535;51.098;6.414;2022-09-19T00:04:15;13.73;;;9.40;;
3050;SDS011;1535;51.098;6.414;2022-09-19T00:06:44;12.70;;;9.70;;
3050;SDS011;1535;51.098;6.414;2022-09-19T00:09:28;10.47;;;9.37;;
3050;SDS011;1535;51.098;6.414;2022-09-19T00:11:57;18.80;;;10.57;;
3050;SDS011;1535;51.098;6.414;2022-09-19T00:14:27;12.50;;;10.20;;
3050;SDS011;1535;51.098;6.414;2022-09-19T00:16:58;12.97;;;10.80;;
3050;SDS011;1535;51.098;6.414;2022-09-19T00:19:26;10.63;;;9.77;;
3050;SDS011;1535;51.098;6.414;2022-09-19T00:21:55;13.10;;;11.80;;
3050;SDS011;1535;51.098;6.414;2022-09-19T00:24:23;18.13;;;10.50;;
3050;SDS011;1535;51.098;6.414;2022-09-19T00:27:09;15.27;;;10.90;;
3050;SDS011;1535;51.098;6.414;2022-09-19T00:29:38;15.70;;;11.40;;
3050;SDS011;1535;51.098;6.414;2022-09-19T00:32:08;20.10;;;10.90;;
3050;SDS011;1535;51.098;6.414;2022-09-19T00:34:37;13.83;;;10.70;;
3050;SDS011;1535;51.098;6.414;2022-09-19T00:37:05;15.43;;;10.93;;
3050;SDS011;1535;51.098;6.414;2022-09-19T00:39:32;13.07;;;11.73;;
3050;SDS011;1535;51.098;6.414;2022-09-19T00:42:00;11.70;;;10.27;;
3050;SDS011;1535;51.098;6.414;2022-09-19T00:47:32;12.50;;;11.20;;
3050;SDS011;1535;51.098;6.414;2022-09-19T00:50:06;11.43;;;10.30;;
3050;SDS011;1535;51.098;6.414;2022-09-19T00:52:40;14.30;;;11.80;;
3050;SDS011;1535;51.098;6.414;2022-09-19T00:55:10;13.00;;;11.70;;
3050;SDS011;1535;51.098;6.414;2022-09-19T00:57:42;12.53;;;11.63;;
3050;SDS011;1535;51.098;6.414;2022-09-19T01:00:32;24.80;;;12.50;;
3050;SDS011;1535;51.098;6.414;2022-09-19T01:03:00;14.20;;;11.33;;
3050;SDS011;1535;51.098;6.414;2022-09-19T01:05:29;13.70;;;12.00;;
3050;SDS011;1535;51.098;6.414;2022-09-19T01:11:08;13.13;;;11.80;;
3050;SDS011;1535;51.098;6.414;2022-09-19T01:13:48;13.27;;;11.83;;
3050;SDS011;1535;51.098;6.414;2022-09-19T01:16:23;13.03;;;11.80;;
3050;SDS011;1535;51.098;6.414;2022-09-19T01:19:01;12.93;;;11.63;;
3050;SDS011;1535;51.098;6.414;2022-09-19T01:21:34;12.30;;;11.40;;
3050;SDS011;1535;51.098;6.414;2022-09-19T01:24:11;19.37;;;11.57;;
3050;SDS011;1535;51.098;6.414;2022-09-19T01:27:05;21.90;;;10.93;;
3050;SDS011;1535;51.098;6.414;2022-09-19T01:29:58;12.60;;;11.47;;
3050;SDS011;1535;51.098;6.414;2022-09-19T01:32:29;14.53;;;11.73;;
3050;SDS011;1535;51.098;6.414;2022-09-19T01:35:00;14.90;;;12.37;;
3050;SDS011;1535;51.098;6.414;2022-09-19T01:37:31;17.33;;;12.17;;
3050;SDS011;1535;51.098;6.414;2022-09-19T01:40:02;13.20;;;11.90;;
3050;SDS011;1535;51.098;6.414;2022-09-19T01:42:32;15.70;;;12.10;;
3050;SDS011;1535;51.098;6.414;2022-09-19T01:45:01;13.73;;;12.60;;
3050;SDS011;1535;51.098;6.414;2022-09-19T01:47:30;13.33;;;12.13;;
3050;SDS011;1535;51.098;6.414;2022-09-19T01:50:07;14.70;;;13.40;;
3050;SDS011;1535;51.098;6.414;2022-09-19T01:52:40;15.53;;;12.00;;
3050;SDS011;1535;51.098;6.414;2022-09-19T01:55:21;17.83;;;12.40;;
3050;SDS011;1535;51.098;6.414;2022-09-19T01:57:56;17.13;;;12.73;;
3050;SDS011;1535;51.098;6.414;2022-09-19T02:00:32;13.63;;;12.33;;
3050;SDS011;1535;51.098;6.414;2022-09-19T02:03:05;15.00;;;12.40;;
3050;SDS011;1535;51.098;6.414;2022-09-19T02:05:40;13.00;;;12.10;;
3050;SDS011;1535;51.098;6.414;2022-09-19T02:08:17;14.87;;;13.50;;
3050;SDS011;1535;51.098;6.414;2022-09-19T02:10:53;14.50;;;13.30;;
3050;SDS011;1535;51.098;6.414;2022-09-19T02:13:25;14.63;;;12.97;;
3050;SDS011;1535;51.098;6.414;2022-09-19T02:15:57;13.93;;;12.60;;
3050;SDS011;1535;51.098;6.414;2022-09-19T02:18:31;20.37;;;13.87;;
3050;SDS011;1535;51.098;6.414;2022-09-19T02:21:03;14.30;;;13.00;;
3050;SDS011;1535;51.098;6.414;2022-09-19T02:23:33;16.53;;;14.13;;
3050;SDS011;1535;51.098;6.414;2022-09-19T02:26:04;14.60;;;13.40;;
3050;SDS011;1535;51.098;6.414;2022-09-19T02:28:35;16.67;;;13.83;;
3050;SDS011;1535;51.098;6.414;2022-09-19T02:31:07;25.57;;;14.37;;
3050;SDS011;1535;51.098;6.414;2022-09-19T02:33:36;18.53;;;14.30;;
3050;SDS011;1535;51.098;6.414;2022-09-19T02:36:08;14.97;;;13.70;;
3050;SDS011;1535;51.098;6.414;2022-09-19T02:38:43;17.83;;;14.60;;
3050;SDS011;1535;51.098;6.414;2022-09-19T02:41:17;19.43;;;13.83;;
3050;SDS011;1535;51.098;6.414;2022-09-19T02:43:48;15.30;;;13.73;;
3050;SDS011;1535;51.098;6.414;2022-09-19T02:46:24;29.77;;;14.23;;
3050;SDS011;1535;51.098;6.414;2022-09-19T02:48:59;14.37;;;13.27;;
3050;SDS011;1535;51.098;6.414;2022-09-19T02:51:31;20.83;;;14.10;;
3050;SDS011;1535;51.098;6.414;2022-09-19T02:54:03;15.27;;;13.80;;
3050;SDS011;1535;51.098;6.414;2022-09-19T02:56:35;21.17;;;14.00;;
3050;SDS011;1535;51.098;6.414;2022-09-19T02:59:07;15.60;;;13.97;;
3050;SDS011;1535;51.098;6.414;2022-09-19T03:01:39;15.73;;;13.60;;
3050;SDS011;1535;51.098;6.414;2022-09-19T03:04:11;15.53;;;14.23;;
3050;SDS011;1535;51.098;6.414;2022-09-19T03:06:43;16.60;;;14.23;;
3050;SDS011;1535;51.098;6.414;2022-09-19T03:09:16;23.83;;;13.83;;
3050;SDS011;1535;51.098;6.414;2022-09-19T03:11:46;16.70;;;15.10;;
3050;SDS011;1535;51.098;6.414;2022-09-19T03:14:20;15.50;;;14.00;;
3050;SDS011;1535;51.098;6.414;2022-09-19T03:16:49;15.23;;;14.23;;
3050;SDS011;1535;51.098;6.414;2022-09-19T03:19:21;18.73;;;14.73;;
3050;SDS011;1535;51.098;6.414;2022-09-19T03:21:51;15.17;;;14.13;;
3050;SDS011;1535;51.098;6.414;2022-09-19T03:24:19;15.77;;;14.57;;
3050;SDS011;1535;51.098;6.414;2022-09-19T03:26:48;15.20;;;13.90;;
3050;SDS011;1535;51.098;6.414;2022-09-19T03:29:17;15.50;;;14.10;;
3050;SDS011;1535;51.098;6.414;2022-09-19T03:31:45;22.33;;;14.80;;
3050;SDS011;1535;51.098;6.414;2022-09-19T03:34:16;16.27;;;14.90;;
3050;SDS011;1535;51.098;6.414;2022-09-19T03:36:44;16.83;;;15.27;;
3050;SDS011;1535;51.098;6.414;2022-09-19T03:39:12;16.83;;;15.30;;
3050;SDS011;1535;51.098;6.414;2022-09-19T03:41:39;21.00;;;15.80;;
3050;SDS011;1535;51.098;6.414;2022-09-19T03:44:07;15.53;;;14.17;;
3050;SDS011;1535;51.098;6.414;2022-09-19T03:46:34;15.67;;;14.43;;
3050;SDS011;1535;51.098;6.414;2022-09-19T03:49:01;17.73;;;15.47;;
3050;SDS011;1535;51.098;6.414;2022-09-19T03:51:31;17.87;;;15.97;;
3050;SDS011;1535;51.098;6.414;2022-09-19T03:53:59;17.40;;;15.43;;
3050;SDS011;1535;51.098;6.414;2022-09-19T03:56:26;16.67;;;15.57;;
3050;SDS011;1535;51.098;6.414;2022-09-19T03:58:53;18.20;;;15.20;;
3050;SDS011;1535;51.098;6.414;2022-09-19T04:01:21;16.93;;;15.33;;
3050;SDS011;1535;51.098;6.414;2022-09-19T04:03:48;18.10;;;16.40;;
3050;SDS011;1535;51.098;6.414;2022-09-19T04:06:15;16.20;;;14.90;;
3050;SDS011;1535;51.098;6.414;2022-09-19T04:08:45;20.13;;;15.33;;
3050;SDS011;1535;51.098;6.414;2022-09-19T04:11:12;18.03;;;16.13;;
3050;SDS011;1535;51.098;6.414;2022-09-19T04:13:39;18.57;;;14.80;;
3050;SDS011;1535;51.098;6.414;2022-09-19T04:16:08;21.57;;;17.10;;
3050;SDS011;1535;51.098;6.414;2022-09-19T04:18:36;18.07;;;16.57;;
3050;SDS011;1535;51.098;6.414;2022-09-19T04:21:06;18.97;;;16.60;;
3050;SDS011;1535;51.098;6.414;2022-09-19T04:23:33;17.70;;;16.20;;
3050;SDS011;1535;51.098;6.414;2022-09-19T04:26:01;22.93;;;17.87;;
3050;SDS011;1535;51.098;6.414;2022-09-19T04:28:30;18.20;;;16.60;;
3050;SDS011;1535;51.098;6.414;2022-09-19T04:30:57;18.97;;;17.07;;
3050;SDS011;1535;51.098;6.414;2022-09-19T04:33:25;18.57;;;16.67;;
3050;SDS011;1535;51.098;6.414;2022-09-19T04:35:52;21.07;;;17.90;;
3050;SDS011;1535;51.098;6.414;2022-09-19T04:38:24;18.70;;;17.00;;
3050;SDS011;1535;51.098;6.414;2022-09-19T04:40:53;17.70;;;16.20;;
3050;SDS011;1535;51.098;6.414;2022-09-19T04:43:23;18.27;;;16.40;;
3050;SDS011;1535;51.098;6.414;2022-09-19T04:45:52;21.50;;;16.83;;
3050;SDS011;1535;51.098;6.414;2022-09-19T04:48:19;19.53;;;17.53;;
3050;SDS011;1535;51.098;6.414;2022-09-19T04:50:47;18.20;;;16.73;;
3050;SDS011;1535;51.098;6.414;2022-09-19T04:53:15;19.10;;;17.20;;
3050;SDS011;1535;51.098;6.414;2022-09-19T04:55:46;18.37;;;16.70;;
3050;SDS011;1535;51.098;6.414;2022-09-19T04:58:15;20.43;;;18.37;;
3050;SDS011;1535;51.098;6.414;2022-09-19T05:00:43;19.40;;;17.40;;
3050;SDS011;1535;51.098;6.414;2022-09-19T05:03:12;21.57;;;16.90;;
3050;SDS011;1535;51.098;6.414;2022-09-19T05:05:40;19.37;;;17.47;;
3050;SDS011;1535;51.098;6.414;2022-09-19T05:08:10;19.60;;;17.53;;
3050;SDS011;1535;51.098;6.414;2022-09-19T05:10:40;17.20;;;15.60;;
3050;SDS011;1535;51.098;6.414;2022-09-19T05:13:08;22.03;;;17.07;;
3050;SDS011;1535;51.098;6.414;2022-09-19T05:15:35;18.73;;;16.77;;
3050;SDS011;1535;51.098;6.414;2022-09-19T05:18:08;27.20;;;17.97;;
3050;SDS011;1535;51.098;6.414;2022-09-19T05:20:36;17.13;;;15.57;;
3050;SDS011;1535;51.098;6.414;2022-09-19T05:23:04;19.03;;;15.60;;
3050;SDS011;1535;51.098;6.414;2022-09-19T05:25:35;19.30;;;16.70;;
3050;SDS011;1535;51.098;6.414;2022-09-19T05:28:03;18.30;;;15.77;;
3050;SDS011;1535;51.098;6.414;2022-09-19T05:30:31;17.70;;;16.23;;
3050;SDS011;1535;51.098;6.414;2022-09-19T05:32:58;17.47;;;15.83;;
3050;SDS011;1535;51.098;6.414;2022-09-19T05:35:28;16.47;;;15.17;;
3050;SDS011;1535;51.098;6.414;2022-09-19T05:37:56;17.53;;;15.77;;
3050;SDS011;1535;51.098;6.414;2022-09-19T05:40:23;25.40;;;15.67;;
3050;SDS011;1535;51.098;6.414;2022-09-19T05:42:52;22.37;;;16.07;;
3050;SDS011;1535;51.098;6.414;2022-09-19T05:45:20;22.13;;;15.70;;
3050;SDS011;1535;51.098;6.414;2022-09-19T05:47:48;18.03;;;15.83;;
3050;SDS011;1535;51.098;6.414;2022-09-19T05:50:17;17.00;;;15.50;;
3050;SDS011;1535;51.098;6.414;2022-09-19T05:52:45;18.80;;;14.97;;
3050;SDS011;1535;51.098;6.414;2022-09-19T05:55:29;35.47;;;15.70;;
3050;SDS011;1535;51.098;6.414;2022-09-19T05:57:57;28.83;;;15.63;;
3050;SDS011;1535;51.098;6.414;2022-09-19T06:00:26;17.40;;;14.50;;
3050;SDS011;1535;51.098;6.414;2022-09-19T06:02:53;28.93;;;14.93;;
3050;SDS011;1535;51.098;6.414;2022-09-19T06:05:21;25.50;;;14.83;;
3050;SDS011;1535;51.098;6.414;2022-09-19T06:07:50;15.50;;;14.03;;
3050;SDS011;1535;51.098;6.414;2022-09-19T06:10:21;16.13;;;14.60;;
3050;SDS011;1535;51.098;6.414;2022-09-19T06:12:48;15.90;;;14.00;;
3050;SDS011;1535;51.098;6.414;2022-09-19T06:15:15;23.07;;;14.30;;
3050;SDS011;1535;51.098;6.414;2022-09-19T06:17:42;20.07;;;14.17;;
3050;SDS011;1535;51.098;6.414;2022-09-19T06:20:14;15.30;;;13.57;;
3050;SDS011;1535;51.098;6.414;2022-09-19T06:22:42;16.73;;;13.30;;
3050;SDS011;1535;51.098;6.414;2022-09-19T06:25:10;15.90;;;13.80;;
3050;SDS011;1535;51.098;6.414;2022-09-19T06:27:38;18.53;;;13.80;;
3050;SDS011;1535;51.098;6.414;2022-09-19T06:30:05;36.03;;;14.23;;
3050;SDS011;1535;51.098;6.414;2022-09-19T06:32:33;15.23;;;12.90;;
3050;SDS011;1535;51.098;6.414;2022-09-19T06:35:00;14.03;;;12.27;;
3050;SDS011;1535;51.098;6.414;2022-09-19T06:37:27;18.77;;;12.80;;
3050;SDS011;1535;51.098;6.414;2022-09-19T06:39:55;14.27;;;13.00;;
3050;SDS011;1535;51.098;6.414;2022-09-19T06:42:23;14.87;;;12.97;;
3050;SDS011;1535;51.098;6.414;2022-09-19T06:44:51;31.47;;;14.07;;
3050;SDS011;1535;51.098;6.414;2022-09-19T06:47:17;21.90;;;12.83;;
3050;SDS011;1535;51.098;6.414;2022-09-19T06:49:44;16.20;;;12.00;;
3050;SDS011;1535;51.098;6.414;2022-09-19T06:52:11;36.33;;;13.33;;
3050;SDS011;1535;51.098;6.414;2022-09-19T06:54:38;15.60;;;11.70;;
3050;SDS011;1535;51.098;6.414;2022-09-19T06:57:04;14.13;;;10.87;;
3050;SDS011;1535;51.098;6.414;2022-09-19T06:59:33;27.33;;;11.83;;
3050;SDS011;1535;51.098;6.414;2022-09-19T07:02:00;19.57;;;9.97;;
3050;SDS011;1535;51.098;6.414;2022-09-19T07:04:27;13.60;;;9.83;;
3050;SDS011;1535;51.098;6.414;2022-09-19T07:06:54;14.13;;;8.87;;
3050;SDS011;1535;51.098;6.414;2022-09-19T07:09:21;19.63;;;9.00;;
3050;SDS011;1535;51.098;6.414;2022-09-19T07:11:50;14.23;;;8.73;;
3050;SDS011;1535;51.098;6.414;2022-09-19T07:14:21;17.53;;;9.33;;
3050;SDS011;1535;51.098;6.414;2022-09-19T07:16:50;20.57;;;9.40;;
3050;SDS011;1535;51.098;6.414;2022-09-19T07:19:17;12.60;;;8.80;;
3050;SDS011;1535;51.098;6.414;2022-09-19T07:21:44;12.03;;;9.07;;
3050;SDS011;1535;51.098;6.414;2022-09-19T07:24:11;23.47;;;9.77;;
3050;SDS011;1535;51.098;6.414;2022-09-19T07:26:39;18.00;;;9.07;;
3050;SDS011;1535;51.098;6.414;2022-09-19T07:29:05;15.47;;;8.17;;
3050;SDS011;1535;51.098;6.414;2022-09-19T07:31:33;10.93;;;8.10;;
3050;SDS011;1535;51.098;6.414;2022-09-19T07:34:02;9.63;;;7.80;;
3050;SDS011;1535;51.098;6.414;2022-09-19T07:36:29;11.87;;;8.40;;
3050;SDS011;1535;51.098;6.414;2022-09-19T07:38:56;15.97;;;8.50;;
3050;SDS011;1535;51.098;6.414;2022-09-19T07:41:23;14.33;;;8.03;;
3050;SDS011;1535;51.098;6.414;2022-09-19T07:43:50;15.77;;;8.70;;
3050;SDS011;1535;51.098;6.414;2022-09-19T07:46:17;14.20;;;9.20;;
3050;SDS011;1535;51.098;6.414;2022-09-19T07:48:46;13.93;;;8.80;;
3050;SDS011;1535;51.098;6.414;2022-09-19T07:51:15;17.63;;;8.90;;
3050;SDS011;1535;51.098;6.414;2022-09-19T07:53:42;12.97;;;9.00;;
3050;SDS011;1535;51.098;6.414;2022-09-19T07:56:09;11.70;;;9.67;;
3050;SDS011;1535;51.098;6.414;2022-09-19T07:58:37;10.00;;;8.80;;
3050;SDS011;1535;51.098;6.414;2022-09-19T08:01:05;13.33;;;9.17;;
3050;SDS011;1535;51.098;6.414;2022-09-19T08:03:32;20.63;;;9.90;;
3050;SDS011;1535;51.098;6.414;2022-09-19T08:05:59;16.90;;;9.70;;
3050;SDS011;1535;51.098;6.414;2022-09-19T08:08:28;31.27;;;9.40;;
3050;SDS011;1535;51.098;6.414;2022-09-19T08:10:57;13.67;;;10.90;;
3050;SDS011;1535;51.098;6.414;2022-09-19T08:13:26;14.73;;;9.87;;
3050;SDS011;1535;51.098;6.414;2022-09-19T08:15:54;21.33;;;10.40;;
3050;SDS011;1535;51.098;6.414;2022-09-19T08:18:22;12.60;;;10.03;;
3050;SDS011;1535;51.098;6.414;2022-09-19T08:20:51;15.10;;;11.37;;
3050;SDS011;1535;51.098;6.414;2022-09-19T08:23:18;11.47;;;10.27;;
3050;SDS011;1535;51.098;6.414;2022-09-19T08:25:48;12.23;;;11.03;;
3050;SDS011;1535;51.098;6.414;2022-09-19T08:28:18;15.57;;;11.00;;
3050;SDS011;1535;51.098;6.414;2022-09-19T08:30:46;11.73;;;10.60;;
3050;SDS011;1535;51.098;6.414;2022-09-19T08:33:15;14.73;;;11.03;;
3050;SDS011;1535;51.098;6.414;2022-09-19T08:35:44;11.57;;;10.60;;
3050;SDS011;1535;51.098;6.414;2022-09-19T08:38:12;12.10;;;11.00;;
3050;SDS011;1535;51.098;6.414;2022-09-19T08:41:00;12.03;;;11.17;;
3050;SDS011;1535;51.098;6.414;2022-09-19T08:43:34;19.37;;;11.60;;
3050;SDS011;1535;51.098;6.414;2022-09-19T08:46:08;21.77;;;12.20;;
3050;SDS011;1535;51.098;6.414;2022-09-19T08:48:44;13.93;;;12.67;;
3050;SDS011;1535;51.098;6.414;2022-09-19T08:51:17;16.30;;;12.33;;
3050;SDS011;1535;51.098;6.414;2022-09-19T08:53:49;14.43;;;13.07;;
3050;SDS011;1535;51.098;6.414;2022-09-19T08:56:21;14.47;;;13.27;;
3050;SDS011;1535;51.098;6.414;2022-09-19T08:58:49;22.90;;;13.33;;
3050;SDS011;1535;51.098;6.414;2022-09-19T09:01:21;23.00;;;14.20;;
3050;SDS011;1535;51.098;6.414;2022-09-19T09:03:53;16.33;;;12.80;;
3050;SDS011;1535;51.098;6.414;2022-09-19T09:06:35;14.67;;;13.40;;
3050;SDS011;1535;51.098;6.414;2022-09-19T09:09:07;14.97;;;13.50;;
3050;SDS011;1535;51.098;6.414;2022-09-19T09:11:45;22.53;;;14.03;;
3050;SDS011;1535;51.098;6.414;2022-09-19T09:14:23;18.87;;;14.37;;
3050;SDS011;1535;51.098;6.414;2022-09-19T09:16:58;18.47;;;14.10;;
3050;SDS011;1535;51.098;6.414;2022-09-19T09:19:36;23.23;;;13.90;;
3050;SDS011;1535;51.098;6.414;2022-09-19T09:22:16;14.73;;;13.43;;
3050;SDS011;1535;51.098;6.414;2022-09-19T09:24:47;16.47;;;14.17;;
3050;SDS011;1535;51.098;6.414;2022-09-19T09:27:20;16.30;;;13.70;;
3050;SDS011;1535;51.098;6.414;2022-09-19T09:29:50;19.07;;;13.47;;
3050;SDS011;1535;51.098;6.414;2022-09-19T09:32:21;14.13;;;12.73;;
3050;SDS011;1535;51.098;6.414;2022-09-19T09:34:52;19.40;;;13.50;;
3050;SDS011;1535;51.098;6.414;2022-09-19T09:37:25;20.83;;;15.20;;
3050;SDS011;1535;51.098;6.414;2022-09-19T09:39:57;16.30;;;14.73;;
3050;SDS011;1535;51.098;6.414;2022-09-19T09:42:37;44.47;;;14.70;;
3050;SDS011;1535;51.098;6.414;2022-09-19T09:45:11;16.33;;;14.47;;
3050;SDS011;1535;51.098;6.414;2022-09-19T09:47:47;15.10;;;13.53;;
3050;SDS011;1535;51.098;6.414;2022-09-19T09:50:28;15.57;;;14.10;;
3050;SDS011;1535;51.098;6.414;2022-09-19T09:53:10;17.30;;;15.30;;
3050;SDS011;1535;51.098;6.414;2022-09-19T09:55:47;16.07;;;14.87;;
3050;SDS011;1535;51.098;6.414;2022-09-19T09:58:41;16.47;;;14.83;;
3050;SDS011;1535;51.098;6.414;2022-09-19T10:01:24;16.20;;;14.73;;
3050;SDS011;1535;51.098;6.414;2022-09-19T10:04:19;19.03;;;16.13;;
3050;SDS011;1535;51.098;6.414;2022-09-19T10:06:56;15.57;;;14.57;;
3050;SDS011;1535;51.098;6.414;2022-09-19T10:09:35;16.57;;;15.23;;
3050;SDS011;1535;51.098;6.414;2022-09-19T10:12:10;17.87;;;16.30;;
3050;SDS011;1535;51.098;6.414;2022-09-19T10:14:47;16.30;;;15.10;;
3050;SDS011;1535;51.098;6.414;2022-09-19T10:17:20;16.43;;;15.03;;
3050;SDS011;1535;51.098;6.414;2022-09-19T10:19:49;16.57;;;15.43;;
3050;SDS011;1535;51.098;6.414;2022-09-19T10:22:21;16.03;;;14.53;;
3050;SDS011;1535;51.098;6.414;2022-09-19T10:24:49;15.10;;;14.10;;
3050;SDS011;1535;51.098;6.414;2022-09-19T10:27:18;15.50;;;14.40;;
3050;SDS011;1535;51.098;6.414;2022-09-19T10:29:51;15.40;;;14.40;;
3050;SDS011;1535;51.098;6.414;2022-09-19T10:32:21;16.47;;;14.90;;
3050;SDS011;1535;51.098;6.414;2022-09-19T10:34:50;16.13;;;14.83;;
3050;SDS011;1535;51.098;6.414;2022-09-19T10:37:19;16.00;;;15.00;;
3050;SDS011;1535;51.098;6.414;2022-09-19T10:39:51;16.90;;;15.10;;
3050;SDS011;1535;51.098;6.414;2022-09-19T10:42:24;16.93;;;15.50;;
3050;SDS011;1535;51.098;6.414;2022-09-19T10:45:15;16.53;;;15.33;;
3050;SDS011;1535;51.098;6.414;2022-09-19T10:47:44;18.23;;;16.10;;
3050;SDS011;1535;51.098;6.414;2022-09-19T10:50:13;18.10;;;16.30;;
3050;SDS011;1535;51.098;6.414;2022-09-19T10:52:42;17.23;;;15.70;;
3050;SDS011;1535;51.098;6.414;2022-09-19T10:55:13;18.07;;;16.30;;
3050;SDS011;1535;51.098;6.414;2022-09-19T10:57:45;18.70;;;15.83;;
3050;SDS011;1535;51.098;6.414;2022-09-19T11:00:24;16.10;;;14.87;;
3050;SDS011;1535;51.098;6.414;2022-09-19T11:02:57;16.00;;;14.63;;
3050;SDS011;1535;51.098;6.414;2022-09-19T11:05:27;16.33;;;14.70;;
3050;SDS011;1535;51.098;6.414;2022-09-19T11:07:56;23.90;;;15.70;;
3050;SDS011;1535;51.098;6.414;2022-09-19T11:10:34;15.30;;;14.30;;
3050;SDS011;1535;51.098;6.414;2022-09-19T11:13:07;17.10;;;15.40;;
3050;SDS011;1535;51.098;6.414;2022-09-19T11:15:41;16.10;;;14.80;;
3050;SDS011;1535;51.098;6.414;2022-09-19T11:18:25;21.03;;;15.50;;
3050;SDS011;1535;51.098;6.414;2022-09-19T11:21:05;16.93;;;15.63;;
3050;SDS011;1535;51.098;6.414;2022-09-19T11:23:41;16.93;;;15.40;;
3050;SDS011;1535;51.098;6.414;2022-09-19T11:26:40;16.80;;;15.07;;
3050;SDS011;1535;51.098;6.414;2022-09-19T11:29:33;16.17;;;15.07;;
3050;SDS011;1535;51.098;6.414;2022-09-19T11:32:13;17.07;;;15.10;;
3050;SDS011;1535;51.098;6.414;2022-09-19T11:35:00;16.73;;;15.20;;
3050;SDS011;1535;51.098;6.414;2022-09-19T11:37:37;19.00;;;15.43;;
3050;SDS011;1535;51.098;6.414;2022-09-19T11:40:18;16.50;;;15.10;;
3050;SDS011;1535;51.098;6.414;2022-09-19T11:42:57;17.60;;;15.97;;
3050;SDS011;1535;51.098;6.414;2022-09-19T11:45:41;16.10;;;14.83;;
3050;SDS011;1535;51.098;6.414;2022-09-19T11:48:22;15.70;;;14.60;;
3050;SDS011;1535;51.098;6.414;2022-09-19T11:51:07;16.10;;;14.80;;
3050;SDS011;1535;51.098;6.414;2022-09-19T11:53:42;16.90;;;15.43;;
3050;SDS011;1535;51.098;6.414;2022-09-19T11:56:21;17.50;;;16.10;;
3050;SDS011;1535;51.098;6.414;2022-09-19T11:59:03;16.97;;;15.87;;
3050;SDS011;1535;51.098;6.414;2022-09-19T12:01:40;16.97;;;15.67;;
3050;SDS011;1535;51.098;6.414;2022-09-19T12:04:21;18.30;;;16.50;;
3050;SDS011;1535;51.098;6.414;2022-09-19T12:07:02;18.70;;;16.70;;
3050;SDS011;1535;51.098;6.414;2022-09-19T12:09:51;19.53;;;17.53;;
3050;SDS011;1535;51.098;6.414;2022-09-19T12:12:23;16.93;;;15.70;;
3050;SDS011;1535;51.098;6.414;2022-09-19T12:14:53;15.73;;;14.80;;
3050;SDS011;1535;51.098;6.414;2022-09-19T12:17:24;15.63;;;14.73;;
3050;SDS011;1535;51.098;6.414;2022-09-19T12:19:57;20.50;;;19.10;;
3050;SDS011;1535;51.098;6.414;2022-09-19T12:22:32;22.20;;;18.87;;
3050;SDS011;1535;51.098;6.414;2022-09-19T12:25:02;18.63;;;16.87;;
3050;SDS011;1535;51.098;6.414;2022-09-19T12:27:34;17.67;;;16.37;;
3050;SDS011;1535;51.098;6.414;2022-09-19T12:30:06;15.67;;;14.87;;
3050;SDS011;1535;51.098;6.414;2022-09-19T12:32:41;16.20;;;15.10;;
3050;SDS011;1535;51.098;6.414;2022-09-19T12:35:16;14.97;;;14.10;;
3050;SDS011;1535;51.098;6.414;2022-09-19T12:37:51;14.53;;;13.70;;
3050;SDS011;1535;51.098;6.414;2022-09-19T12:40:25;15.00;;;13.63;;
3050;SDS011;1535;51.098;6.414;2022-09-19T12:42:57;14.00;;;12.93;;
3050;SDS011;1535;51.098;6.414;2022-09-19T12:45:36;14.17;;;12.80;;
3050;SDS011;1535;51.098;6.414;2022-09-19T12:48:11;12.23;;;11.70;;
3050;SDS011;1535;51.098;6.414;2022-09-19T12:50:46;13.00;;;11.87;;
3050;SDS011;1535;51.098;6.414;2022-09-19T12:53:19;12.80;;;11.87;;
3050;SDS011;1535;51.098;6.414;2022-09-19T12:55:57;11.97;;;11.00;;
3050;SDS011;1535;51.098;6.414;2022-09-19T12:58:31;11.47;;;10.57;;
3050;SDS011;1535;51.098;6.414;2022-09-19T13:01:04;13.93;;;11.57;;
3050;SDS011;1535;51.098;6.414;2022-09-19T13:03:40;11.77;;;10.60;;
3050;SDS011;1535;51.098;6.414;2022-09-19T13:06:13;12.40;;;8.90;;
3050;SDS011;1535;51.098;6.414;2022-09-19T13:08:45;9.33;;;8.47;;
3050;SDS011;1535;51.098;6.414;2022-09-19T13:11:16;10.37;;;9.10;;
3050;SDS011;1535;51.098;6.414;2022-09-19T13:13:50;10.53;;;9.60;;
3050;SDS011;1535;51.098;6.414;2022-09-19T13:16:25;11.90;;;10.67;;
3050;SDS011;1535;51.098;6.414;2022-09-19T13:18:55;11.67;;;10.77;;
3050;SDS011;1535;51.098;6.414;2022-09-19T13:21:41;12.33;;;10.97;;
3050;SDS011;1535;51.098;6.414;2022-09-19T13:24:29;16.00;;;12.57;;
3050;SDS011;1535;51.098;6.414;2022-09-19T13:27:03;20.33;;;13.37;;
3050;SDS011;1535;51.098;6.414;2022-09-19T13:29:44;14.63;;;12.50;;
3050;SDS011;1535;51.098;6.414;2022-09-19T13:32:27;13.17;;;12.40;;
3050;SDS011;1535;51.098;6.414;2022-09-19T13:35:13;14.67;;;13.47;;
3050;SDS011;1535;51.098;6.414;2022-09-19T13:37:47;14.80;;;13.90;;
3050;SDS011;1535;51.098;6.414;2022-09-19T13:46:14;17.70;;;16.37;;
3050;SDS011;1535;51.098;6.414;2022-09-19T13:48:46;21.90;;;16.50;;
3050;SDS011;1535;51.098;6.414;2022-09-19T13:51:22;17.20;;;16.07;;
3050;SDS011;1535;51.098;6.414;2022-09-19T13:56:42;17.40;;;16.20;;
3050;SDS011;1535;51.098;6.414;2022-09-19T13:59:15;18.23;;;16.67;;
3050;SDS011;1535;51.098;6.414;2022-09-19T14:01:54;17.40;;;16.30;;
3050;SDS011;1535;51.098;6.414;2022-09-19T14:04:29;19.30;;;17.10;;
3050;SDS011;1535;51.098;6.414;2022-09-19T14:07:32;16.90;;;15.60;;
3050;SDS011;1535;51.098;6.414;2022-09-19T14:10:05;16.97;;;15.77;;
3050;SDS011;1535;51.098;6.414;2022-09-19T14:12:50;17.63;;;16.13;;
3050;SDS011;1535;51.098;6.414;2022-09-19T14:24:21;17.00;;;15.50;;
3050;SDS011;1535;51.098;6.414;2022-09-19T14:27:02;16.77;;;15.60;;
3050;SDS011;1535;51.098;6.414;2022-09-19T14:29:39;16.70;;;15.80;;
3050;SDS011;1535;51.098;6.414;2022-09-19T14:32:14;17.83;;;16.67;;
3050;SDS011;1535;51.098;6.414;2022-09-19T14:37:53;17.00;;;15.80;;
3050;SDS011;1535;51.098;6.414;2022-09-19T14:40:33;16.80;;;15.80;;
3050;SDS011;1535;51.098;6.414;2022-09-19T14:46:20;16.60;;;15.30;;
3050;SDS011;1535;51.098;6.414;2022-09-19T14:48:53;17.33;;;16.00;;
3050;SDS011;1535;51.098;6.414;2022-09-19T14:51:30;16.53;;;15.53;;
3050;SDS011;1535;51.098;6.414;2022-09-19T14:54:05;16.63;;;15.03;;
3050;SDS011;1535;51.098;6.414;2022-09-19T14:56:39;16.37;;;15.30;;
3050;SDS011;1535;51.098;6.414;2022-09-19T14:59:17;16.50;;;15.40;;
3050;SDS011;1535;51.098;6.414;2022-09-19T15:01:47;16.97;;;15.70;;
3050;SDS011;1535;51.098;6.414;2022-09-19T15:04:19;17.33;;;16.07;;
3050;SDS011;1535;51.098;6.414;2022-09-19T15:06:50;17.03;;;15.93;;
3050;SDS011;1535;51.098;6.414;2022-09-19T15:09:20;17.60;;;16.40;;
3050;SDS011;1535;51.098;6.414;2022-09-19T15:11:48;17.70;;;16.40;;
3050;SDS011;1535;51.098;6.414;2022-09-19T15:14:20;17.77;;;16.50;;
3050;SDS011;1535;51.098;6.414;2022-09-19T15:16:49;18.00;;;16.90;;
3050;SDS011;1535;51.098;6.414;2022-09-19T15:19:21;17.83;;;16.63;;
3050;SDS011;1535;51.098;6.414;2022-09-19T15:21:49;17.60;;;16.40;;
3050;SDS011;1535;51.098;6.414;2022-09-19T15:24:22;17.83;;;16.53;;
3050;SDS011;1535;51.098;6.414;2022-09-19T15:26:49;17.73;;;16.47;;
3050;SDS011;1535;51.098;6.414;2022-09-19T15:29:22;17.63;;;16.20;;
3050;SDS011;1535;51.098;6.414;2022-09-19T15:32:14;18.33;;;16.73;;
3050;SDS011;1535;51.098;6.414;2022-09-19T15:34:51;17.20;;;16.10;;
3050;SDS011;1535;51.098;6.414;2022-09-19T15:37:20;17.67;;;16.47;;
3050;SDS011;1535;51.098;6.414;2022-09-19T15:39:49;17.47;;;16.37;;
3050;SDS011;1535;51.098;6.414;2022-09-19T15:42:17;17.23;;;15.87;;
3050;SDS011;1535;51.098;6.414;2022-09-19T15:44:45;17.50;;;15.97;;
3050;SDS011;1535;51.098;6.414;2022-09-19T15:47:14;17.73;;;16.13;;
3050;SDS011;1535;51.098;6.414;2022-09-19T15:49:44;17.20;;;15.90;;